sensor_id;sensor_type;location;lat;lon;timestamp;pressure;altitude;pressure_sealevel;temperature;humidity
64080;BME280;51042;49.696;10.808;2023-08-12T00:00:26;98798.03;;;18.39;100.00
64080;BME280;51042;49.696;10.808;2023-08-12T00:02:51;98808.09;;;18.36;100.00
64080;BME280;51042;49.696;10.808;2023-08-12T00:05:16;98809.81;;;18.33;100.00
64080;BME280;51042;49.696;10.808;2023-08-12T00:07:41;98807.22;;;18.30;100.00
64080;BME280;51042;49.696;10.808;2023-08-12T00:10:07;98814.69;;;18.24;100.00
64080;BME280;51042;49.696;10.808;2023-08-12T00:12:32;98808.56;;;18.20;100.00
64080;BME280;51042;49.696;10.808;2023-08-12T00:14:58;98805.22;;;18.16;100.00
64080;BME280;51042;49.696;10.808;2023-08-12T00:17:23;98804.13;;;18.13;100.00
64080;BME280;51042;49.696;10.808;2023-08-12T00:19:48;98801.56;;;18.10;100.00
64080;BME280;51042;49.696;10.808;2023-08-12T00:22:13;98796.47;;;18.08;100.00
64080;BME280;51042;49.696;10.808;2023-08-12T00:24:39;98800.94;;;18.06;100.00
64080;BME280;51042;49.696;10.808;2023-08-12T00:27:05;98809.00;;;18.04;100.00
64080;BME280;51042;49.696;10.808;2023-08-12T00:29:31;98803.47;;;18.04;100.00
64080;BME280;51042;49.696;10.808;2023-08-12T00:31:56;98797.28;;;18.00;100.00
64080;BME280;51042;49.696;10.808;2023-08-12T00:34:21;98786.09;;;17.94;100.00
64080;BME280;51042;49.696;10.808;2023-08-12T00:36:46;98793.06;;;17.89;100.00
64080;BME280;51042;49.696;10.808;2023-08-12T00:39:12;98785.69;;;17.86;100.00
64080;BME280;51042;49.696;10.808;2023-08-12T00:41:37;98788.19;;;17.84;100.00
64080;BME280;51042;49.696;10.808;2023-08-12T00:44:03;98786.63;;;17.83;100.00
64080;BME280;51042;49.696;10.808;2023-08-12T00:46:28;98782.31;;;17.82;100.00
64080;BME280;51042;49.696;10.808;2023-08-12T00:48:53;98774.94;;;17.79;100.00
64080;BME280;51042;49.696;10.808;2023-08-12T00:51:19;98778.19;;;17.78;100.00
64080;BME280;51042;49.696;10.808;2023-08-12T00:53:44;98778.66;;;17.76;100.00
64080;BME280;51042;49.696;10.808;2023-08-12T00:56:11;98775.88;;;17.76;100.00
64080;BME280;51042;49.696;10.808;2023-08-12T00:58:36;98777.44;;;17.77;100.00
64080;BME280;51042;49.696;10.808;2023-08-12T01:01:02;98781.44;;;17.76;100.00
64080;BME280;51042;49.696;10.808;2023-08-12T01:03:28;98773.88;;;17.77;100.00
64080;BME280;51042;49.696;10.808;2023-08-12T01:05:54;98768.06;;;17.75;100.00
64080;BME280;51042;49.696;10.808;2023-08-12T01:08:20;98771.75;;;17.72;100.00
64080;BME280;51042;49.696;10.808;2023-08-12T01:10:47;98766.41;;;17.68;100.00
64080;BME280;51042;49.696;10.808;2023-08-12T01:15:39;98765.53;;;17.62;100.00
64080;BME280;51042;49.696;10.808;2023-08-12T01:18:06;98767.34;;;17.65;100.00
64080;BME280;51042;49.696;10.808;2023-08-12T01:20:31;98767.34;;;17.65;100.00
64080;BME280;51042;49.696;10.808;2023-08-12T01:22:58;98766.41;;;17.68;100.00
64080;BME280;51042;49.696;10.808;2023-08-12T01:25:26;98754.53;;;17.68;100.00
64080;BME280;51042;49.696;10.808;2023-08-12T01:27:51;98748.09;;;17.62;100.00
64080;BME280;51042;49.696;10.808;2023-08-12T01:30:17;98736.66;;;17.60;100.00
64080;BME280;51042;49.696;10.808;2023-08-12T01:32:45;98734.34;;;17.58;100.00
64080;BME280;51042;49.696;10.808;2023-08-12T01:35:16;98736.09;;;17.55;100.00
64080;BME280;51042;49.696;10.808;2023-08-12T01:37:42;98737.31;;;17.54;100.00
64080;BME280;51042;49.696;10.808;2023-08-12T01:40:08;98727.94;;;17.52;100.00
64080;BME280;51042;49.696;10.808;2023-08-12T01:42:34;98726.22;;;17.54;100.00
64080;BME280;51042;49.696;10.808;2023-08-12T01:44:59;98729.56;;;17.59;100.00
64080;BME280;51042;49.696;10.808;2023-08-12T01:47:26;98726.94;;;17.64;100.00
64080;BME280;51042;49.696;10.808;2023-08-12T01:49:51;98728.47;;;17.65;100.00
64080;BME280;51042;49.696;10.808;2023-08-12T01:52:17;98726.94;;;17.64;100.00
64080;BME280;51042;49.696;10.808;2023-08-12T01:54:42;98722.16;;;17.65;100.00
64080;BME280;51042;49.696;10.808;2023-08-12T01:57:07;98718.47;;;17.59;100.00
64080;BME280;51042;49.696;10.808;2023-08-12T01:59:34;98709.75;;;17.51;100.00
64080;BME280;51042;49.696;10.808;2023-08-12T02:01:59;98715.00;;;17.49;100.00
64080;BME280;51042;49.696;10.808;2023-08-12T02:04:25;98709.00;;;17.50;100.00
64080;BME280;51042;49.696;10.808;2023-08-12T02:06:50;98711.78;;;17.50;100.00
64080;BME280;51042;49.696;10.808;2023-08-12T02:09:15;98704.50;;;17.53;100.00
64080;BME280;51042;49.696;10.808;2023-08-12T02:11:41;98695.50;;;17.58;100.00
64080;BME280;51042;49.696;10.808;2023-08-12T02:14:06;98707.72;;;17.61;100.00
64080;BME280;51042;49.696;10.808;2023-08-12T02:16:31;98700.72;;;17.65;100.00
64080;BME280;51042;49.696;10.808;2023-08-12T02:18:56;98704.09;;;17.69;100.00
64080;BME280;51042;49.696;10.808;2023-08-12T02:21:22;98703.03;;;17.67;100.00
64080;BME280;51042;49.696;10.808;2023-08-12T02:23:47;98704.28;;;17.66;100.00
64080;BME280;51042;49.696;10.808;2023-08-12T02:26:12;98696.25;;;17.68;100.00
64080;BME280;51042;49.696;10.808;2023-08-12T02:28:37;98694.91;;;17.63;100.00
64080;BME280;51042;49.696;10.808;2023-08-12T02:31:02;98699.03;;;17.59;100.00
64080;BME280;51042;49.696;10.808;2023-08-12T02:33:27;98693.88;;;17.51;100.00
64080;BME280;51042;49.696;10.808;2023-08-12T02:35:53;98695.59;;;17.49;100.00
64080;BME280;51042;49.696;10.808;2023-08-12T02:38:19;98688.50;;;17.48;100.00
64080;BME280;51042;49.696;10.808;2023-08-12T02:40:47;98688.81;;;17.50;100.00
64080;BME280;51042;49.696;10.808;2023-08-12T02:43:12;98688.50;;;17.48;100.00
64080;BME280;51042;49.696;10.808;2023-08-12T02:45:37;98692.50;;;17.47;100.00
64080;BME280;51042;49.696;10.808;2023-08-12T02:48:02;98686.38;;;17.43;100.00
64080;BME280;51042;49.696;10.808;2023-08-12T02:50:28;98689.75;;;17.47;100.00
64080;BME280;51042;49.696;10.808;2023-08-12T02:52:53;98681.41;;;17.47;100.00
64080;BME280;51042;49.696;10.808;2023-08-12T02:55:18;98685.25;;;17.49;100.00
64080;BME280;51042;49.696;10.808;2023-08-12T02:57:43;98673.38;;;17.49;100.00
64080;BME280;51042;49.696;10.808;2023-08-12T03:00:09;98670.16;;;17.50;100.00
64080;BME280;51042;49.696;10.808;2023-08-12T03:02:34;98665.84;;;17.49;100.00
64080;BME280;51042;49.696;10.808;2023-08-12T03:04:59;98669.50;;;17.55;100.00
64080;BME280;51042;49.696;10.808;2023-08-12T03:07:24;98664.97;;;17.58;100.00
64080;BME280;51042;49.696;10.808;2023-08-12T03:09:50;98666.25;;;17.57;100.00
64080;BME280;51042;49.696;10.808;2023-08-12T03:12:15;98674.84;;;17.59;100.00
64080;BME280;51042;49.696;10.808;2023-08-12T03:14:40;98672.69;;;17.63;100.00
64080;BME280;51042;49.696;10.808;2023-08-12T03:17:05;98675.16;;;17.61;100.00
64080;BME280;51042;49.696;10.808;2023-08-12T03:19:30;98672.56;;;17.58;100.00
64080;BME280;51042;49.696;10.808;2023-08-12T03:21:55;98679.03;;;17.54;100.00
64080;BME280;51042;49.696;10.808;2023-08-12T03:24:21;98677.88;;;17.46;100.00
64080;BME280;51042;49.696;10.808;2023-08-12T03:26:46;98675.75;;;17.41;100.00
64080;BME280;51042;49.696;10.808;2023-08-12T03:29:11;98678.72;;;17.38;100.00
64080;BME280;51042;49.696;10.808;2023-08-12T03:31:36;98685.22;;;17.35;100.00
64080;BME280;51042;49.696;10.808;2023-08-12T03:34:01;98682.63;;;17.31;100.00
64080;BME280;51042;49.696;10.808;2023-08-12T03:36:27;98690.94;;;17.31;100.00
64080;BME280;51042;49.696;10.808;2023-08-12T03:38:52;98688.63;;;17.30;100.00
64080;BME280;51042;49.696;10.808;2023-08-12T03:41:17;98685.41;;;17.31;100.00
64080;BME280;51042;49.696;10.808;2023-08-12T03:43:42;98687.97;;;17.35;100.00
64080;BME280;51042;49.696;10.808;2023-08-12T03:46:07;98679.97;;;17.37;100.00
64080;BME280;51042;49.696;10.808;2023-08-12T03:48:32;98680.44;;;17.35;100.00
64080;BME280;51042;49.696;10.808;2023-08-12T03:50:58;98679.66;;;17.35;100.00
64080;BME280;51042;49.696;10.808;2023-08-12T03:53:23;98677.06;;;17.31;100.00
64080;BME280;51042;49.696;10.808;2023-08-12T03:55:48;98682.63;;;17.31;100.00
64080;BME280;51042;49.696;10.808;2023-08-12T03:58:13;98677.06;;;17.31;100.00
64080;BME280;51042;49.696;10.808;2023-08-12T04:00:41;98671.81;;;17.33;100.00
64080;BME280;51042;49.696;10.808;2023-08-12T04:03:07;98677.94;;;17.37;100.00
64080;BME280;51042;49.696;10.808;2023-08-12T04:05:33;98677.00;;;17.40;100.00
64080;BME280;51042;49.696;10.808;2023-08-12T04:07:58;98678.38;;;17.45;100.00
64080;BME280;51042;49.696;10.808;2023-08-12T04:10:23;98682.47;;;17.49;100.00
64080;BME280;51042;49.696;10.808;2023-08-12T04:12:48;98675.34;;;17.58;100.00
64080;BME280;51042;49.696;10.808;2023-08-12T04:15:14;98677.59;;;17.68;100.00
64080;BME280;51042;49.696;10.808;2023-08-12T04:17:39;98677.38;;;17.72;100.00
64080;BME280;51042;49.696;10.808;2023-08-12T04:20:07;98677.22;;;17.75;100.00
64080;BME280;51042;49.696;10.808;2023-08-12T04:22:33;98665.63;;;17.77;100.00
64080;BME280;51042;49.696;10.808;2023-08-12T04:24:59;98677.00;;;17.79;100.00
64080;BME280;51042;49.696;10.808;2023-08-12T04:27:24;98672.53;;;17.81;100.00
64080;BME280;51042;49.696;10.808;2023-08-12T04:29:49;98671.66;;;17.90;100.00
64080;BME280;51042;49.696;10.808;2023-08-12T04:32:14;98669.06;;;18.01;100.00
64080;BME280;51042;49.696;10.808;2023-08-12T04:34:40;98669.00;;;18.10;100.00
64080;BME280;51042;49.696;10.808;2023-08-12T04:37:05;98668.72;;;18.23;100.00
64080;BME280;51042;49.696;10.808;2023-08-12T04:39:30;98669.44;;;18.38;100.00
64080;BME280;51042;49.696;10.808;2023-08-12T04:41:57;98661.28;;;18.49;100.00
64080;BME280;51042;49.696;10.808;2023-08-12T04:44:22;98668.88;;;18.84;100.00
64080;BME280;51042;49.696;10.808;2023-08-12T04:46:47;98671.34;;;19.37;100.00
64080;BME280;51042;49.696;10.808;2023-08-12T04:49:12;98661.19;;;20.31;100.00
64080;BME280;51042;49.696;10.808;2023-08-12T04:51:38;98657.66;;;21.10;98.71
64080;BME280;51042;49.696;10.808;2023-08-12T04:54:03;98662.72;;;21.71;95.60
64080;BME280;51042;49.696;10.808;2023-08-12T04:56:28;98657.72;;;22.53;85.50
64080;BME280;51042;49.696;10.808;2023-08-12T04:58:56;98648.78;;;22.99;84.01
64080;BME280;51042;49.696;10.808;2023-08-12T05:01:22;98650.88;;;23.45;77.97
64080;BME280;51042;49.696;10.808;2023-08-12T05:03:47;98650.88;;;22.49;81.69
64080;BME280;51042;49.696;10.808;2023-08-12T05:06:12;98656.72;;;22.12;88.42
64080;BME280;51042;49.696;10.808;2023-08-12T05:08:37;98655.78;;;23.34;80.02
64080;BME280;51042;49.696;10.808;2023-08-12T05:11:02;98653.31;;;24.12;72.90
64080;BME280;51042;49.696;10.808;2023-08-12T05:13:28;98648.72;;;24.09;72.97
64080;BME280;51042;49.696;10.808;2023-08-12T05:15:54;98652.66;;;23.95;74.56
64080;BME280;51042;49.696;10.808;2023-08-12T05:18:21;98654.72;;;24.30;72.01
64080;BME280;51042;49.696;10.808;2023-08-12T05:20:48;98653.31;;;24.12;70.25
64080;BME280;51042;49.696;10.808;2023-08-12T05:23:13;98648.44;;;24.18;70.92
64080;BME280;51042;49.696;10.808;2023-08-12T05:25:38;98648.44;;;24.18;68.18
64080;BME280;51042;49.696;10.808;2023-08-12T05:28:04;98645.03;;;23.43;72.52
64080;BME280;51042;49.696;10.808;2023-08-12T05:30:29;98641.75;;;22.09;80.20
64080;BME280;51042;49.696;10.808;2023-08-12T05:32:54;98641.63;;;21.59;84.57
64080;BME280;51042;49.696;10.808;2023-08-12T05:35:19;98640.38;;;21.01;87.70
64080;BME280;51042;49.696;10.808;2023-08-12T05:37:44;98641.72;;;20.74;90.34
64080;BME280;51042;49.696;10.808;2023-08-12T05:40:10;98642.41;;;20.58;91.87
64080;BME280;51042;49.696;10.808;2023-08-12T05:42:35;98637.66;;;20.32;93.37
64080;BME280;51042;49.696;10.808;2023-08-12T05:45:01;98647.38;;;20.17;95.16
64080;BME280;51042;49.696;10.808;2023-08-12T05:47:26;98643.09;;;20.21;95.19
64080;BME280;51042;49.696;10.808;2023-08-12T05:49:51;98641.00;;;20.11;96.26
64080;BME280;51042;49.696;10.808;2023-08-12T05:52:16;98644.06;;;20.13;96.54
64080;BME280;51042;49.696;10.808;2023-08-12T05:54:41;98651.06;;;20.03;97.88
64080;BME280;51042;49.696;10.808;2023-08-12T05:57:07;98645.59;;;20.14;97.39
64080;BME280;51042;49.696;10.808;2023-08-12T05:59:32;98641.28;;;20.13;96.86
64080;BME280;51042;49.696;10.808;2023-08-12T06:01:57;98643.91;;;19.96;98.10
64080;BME280;51042;49.696;10.808;2023-08-12T06:04:22;98644.94;;;19.98;98.20
64080;BME280;51042;49.696;10.808;2023-08-12T06:06:47;98645.28;;;20.06;98.72
64080;BME280;51042;49.696;10.808;2023-08-12T06:09:12;98657.03;;;20.21;96.73
64080;BME280;51042;49.696;10.808;2023-08-12T06:11:38;98654.38;;;20.32;98.67
64080;BME280;51042;49.696;10.808;2023-08-12T06:14:03;98657.03;;;20.47;95.57
64080;BME280;51042;49.696;10.808;2023-08-12T06:16:28;98659.97;;;20.69;97.41
64080;BME280;51042;49.696;10.808;2023-08-12T06:18:53;98661.09;;;20.89;92.69
64080;BME280;51042;49.696;10.808;2023-08-12T06:21:18;98650.28;;;21.07;92.46
64080;BME280;51042;49.696;10.808;2023-08-12T06:23:44;98640.50;;;21.29;90.66
64080;BME280;51042;49.696;10.808;2023-08-12T06:26:09;98648.25;;;21.62;89.41
64080;BME280;51042;49.696;10.808;2023-08-12T06:28:34;98653.81;;;21.50;87.03
64080;BME280;51042;49.696;10.808;2023-08-12T06:30:59;98655.84;;;21.61;86.88
64080;BME280;51042;49.696;10.808;2023-08-12T06:33:24;98648.00;;;21.76;86.85
64080;BME280;51042;49.696;10.808;2023-08-12T06:35:50;98640.97;;;21.97;87.76
64080;BME280;51042;49.696;10.808;2023-08-12T06:38:15;98643.72;;;21.92;84.82
64080;BME280;51042;49.696;10.808;2023-08-12T06:40:40;98642.19;;;21.91;85.66
64080;BME280;51042;49.696;10.808;2023-08-12T06:43:06;98643.72;;;21.92;85.47
64080;BME280;51042;49.696;10.808;2023-08-12T06:45:32;98648.03;;;21.93;84.87
64080;BME280;51042;49.696;10.808;2023-08-12T06:47:57;98652.84;;;21.87;83.60
64080;BME280;51042;49.696;10.808;2023-08-12T06:50:22;98648.25;;;21.73;84.97
64080;BME280;51042;49.696;10.808;2023-08-12T06:52:48;98652.56;;;21.68;85.34
64080;BME280;51042;49.696;10.808;2023-08-12T06:55:13;98655.06;;;21.49;86.65
64080;BME280;51042;49.696;10.808;2023-08-12T06:57:41;98648.75;;;21.60;87.12
64080;BME280;51042;49.696;10.808;2023-08-12T07:00:07;98638.84;;;21.65;87.50
64080;BME280;51042;49.696;10.808;2023-08-12T07:02:32;98640.13;;;21.69;88.31
64080;BME280;51042;49.696;10.808;2023-08-12T07:04:57;98632.22;;;21.56;86.23
64080;BME280;51042;49.696;10.808;2023-08-12T07:07:22;98637.53;;;21.43;88.26
64080;BME280;51042;49.696;10.808;2023-08-12T07:09:48;98630.91;;;21.41;89.95
64080;BME280;51042;49.696;10.808;2023-08-12T07:12:13;98637.56;;;21.54;88.24
64080;BME280;51042;49.696;10.808;2023-08-12T07:14:38;98644.44;;;21.76;88.74
64080;BME280;51042;49.696;10.808;2023-08-12T07:17:03;98638.13;;;21.86;86.01
64080;BME280;51042;49.696;10.808;2023-08-12T07:19:28;98646.03;;;22.05;85.05
64080;BME280;51042;49.696;10.808;2023-08-12T07:21:53;98645.28;;;22.26;86.08
64080;BME280;51042;49.696;10.808;2023-08-12T07:24:19;98648.03;;;22.71;84.57
64080;BME280;51042;49.696;10.808;2023-08-12T07:26:44;98646.22;;;23.01;81.47
64080;BME280;51042;49.696;10.808;2023-08-12T07:29:09;98633.81;;;22.80;81.07
64080;BME280;51042;49.696;10.808;2023-08-12T07:31:34;98642.22;;;22.41;81.87
64080;BME280;51042;49.696;10.808;2023-08-12T07:33:59;98647.06;;;22.46;83.62
64080;BME280;51042;49.696;10.808;2023-08-12T07:36:25;98660.28;;;22.73;83.57
64080;BME280;51042;49.696;10.808;2023-08-12T07:38:50;98651.59;;;22.88;83.10
64080;BME280;51042;49.696;10.808;2023-08-12T07:41:15;98654.66;;;22.79;83.27
64080;BME280;51042;49.696;10.808;2023-08-12T07:43:40;98670.16;;;22.97;82.05
64080;BME280;51042;49.696;10.808;2023-08-12T07:46:05;98661.69;;;23.19;80.39
64080;BME280;51042;49.696;10.808;2023-08-12T07:48:30;98659.19;;;23.10;81.32
64080;BME280;51042;49.696;10.808;2023-08-12T07:50:56;98658.22;;;22.91;79.76
64080;BME280;51042;49.696;10.808;2023-08-12T07:53:22;98659.00;;;22.74;82.89
64080;BME280;51042;49.696;10.808;2023-08-12T07:55:47;98653.63;;;22.82;82.69
64080;BME280;51042;49.696;10.808;2023-08-12T07:58:12;98651.81;;;22.96;81.90
64080;BME280;51042;49.696;10.808;2023-08-12T08:00:38;98665.28;;;23.08;82.30
64080;BME280;51042;49.696;10.808;2023-08-12T08:03:03;98664.50;;;23.13;81.14
64080;BME280;51042;49.696;10.808;2023-08-12T08:05:29;98659.31;;;23.40;80.54
64080;BME280;51042;49.696;10.808;2023-08-12T08:07:54;98659.25;;;23.56;79.30
64080;BME280;51042;49.696;10.808;2023-08-12T08:10:19;98653.78;;;23.81;80.77
64080;BME280;51042;49.696;10.808;2023-08-12T08:12:44;98655.84;;;23.75;77.62
64080;BME280;51042;49.696;10.808;2023-08-12T08:15:09;98647.84;;;23.38;79.32
64080;BME280;51042;49.696;10.808;2023-08-12T08:17:35;98658.53;;;23.50;82.20
64080;BME280;51042;49.696;10.808;2023-08-12T08:20:00;98645.84;;;23.85;79.88
64080;BME280;51042;49.696;10.808;2023-08-12T08:22:25;98645.66;;;23.72;77.68
64080;BME280;51042;49.696;10.808;2023-08-12T08:24:50;98648.56;;;23.55;78.99
64080;BME280;51042;49.696;10.808;2023-08-12T08:27:15;98646.47;;;24.02;78.82
64080;BME280;51042;49.696;10.808;2023-08-12T08:29:40;98652.91;;;24.32;76.53
64080;BME280;51042;49.696;10.808;2023-08-12T08:32:06;98641.22;;;24.83;74.93
64080;BME280;51042;49.696;10.808;2023-08-12T08:34:31;98640.75;;;25.03;73.24
64080;BME280;51042;49.696;10.808;2023-08-12T08:36:56;98635.94;;;25.41;73.35
64080;BME280;51042;49.696;10.808;2023-08-12T08:39:21;98631.63;;;25.40;70.74
64080;BME280;51042;49.696;10.808;2023-08-12T08:41:47;98648.00;;;25.17;73.12
64080;BME280;51042;49.696;10.808;2023-08-12T08:44:12;98649.34;;;24.86;71.45
64080;BME280;51042;49.696;10.808;2023-08-12T08:46:39;98648.00;;;24.38;76.13
64080;BME280;51042;49.696;10.808;2023-08-12T08:49:05;98647.97;;;24.68;77.02
64080;BME280;51042;49.696;10.808;2023-08-12T08:51:31;98648.38;;;25.08;74.41
64080;BME280;51042;49.696;10.808;2023-08-12T08:53:57;98648.84;;;25.74;73.26
64080;BME280;51042;49.696;10.808;2023-08-12T08:56:22;98651.34;;;26.28;68.33
64080;BME280;51042;49.696;10.808;2023-08-12T08:58:48;98661.56;;;26.44;68.87
64080;BME280;51042;49.696;10.808;2023-08-12T09:01:14;98657.00;;;27.39;64.26
64080;BME280;51042;49.696;10.808;2023-08-12T09:03:40;98655.41;;;27.04;65.47
64080;BME280;51042;49.696;10.808;2023-08-12T09:06:07;98638.91;;;27.08;64.17
64080;BME280;51042;49.696;10.808;2023-08-12T09:08:36;98639.09;;;27.49;64.14
64080;BME280;51042;49.696;10.808;2023-08-12T09:11:02;98632.75;;;26.96;65.24
64080;BME280;51042;49.696;10.808;2023-08-12T09:13:28;98641.19;;;27.09;66.04
64080;BME280;51042;49.696;10.808;2023-08-12T09:15:54;98644.56;;;27.21;64.99
64080;BME280;51042;49.696;10.808;2023-08-12T09:18:20;98640.09;;;27.26;61.33
64080;BME280;51042;49.696;10.808;2023-08-12T09:20:49;98636.75;;;27.14;67.08
64080;BME280;51042;49.696;10.808;2023-08-12T09:23:14;98637.28;;;27.52;65.88
64080;BME280;51042;49.696;10.808;2023-08-12T09:25:42;98637.06;;;27.84;61.26
64080;BME280;51042;49.696;10.808;2023-08-12T09:28:09;98636.72;;;28.21;61.39
64080;BME280;51042;49.696;10.808;2023-08-12T09:30:35;98645.84;;;28.56;60.29
64080;BME280;51042;49.696;10.808;2023-08-12T09:33:01;98640.34;;;28.99;59.79
64080;BME280;51042;49.696;10.808;2023-08-12T09:35:32;98646.69;;;29.20;59.24
64080;BME280;51042;49.696;10.808;2023-08-12T09:37:57;98639.09;;;29.44;58.93
64080;BME280;51042;49.696;10.808;2023-08-12T09:40:23;98631.59;;;29.18;56.87
64080;BME280;51042;49.696;10.808;2023-08-12T09:42:48;98631.28;;;29.29;59.71
64080;BME280;51042;49.696;10.808;2023-08-12T09:45:13;98629.28;;;29.45;57.27
64080;BME280;51042;49.696;10.808;2023-08-12T09:47:38;98626.56;;;29.32;58.01
64080;BME280;51042;49.696;10.808;2023-08-12T09:50:06;98632.25;;;29.83;57.50
64080;BME280;51042;49.696;10.808;2023-08-12T09:52:31;98625.41;;;30.67;55.60
64080;BME280;51042;49.696;10.808;2023-08-12T09:54:57;98629.34;;;30.72;54.65
64080;BME280;51042;49.696;10.808;2023-08-12T09:57:24;98617.03;;;31.07;53.94
64080;BME280;51042;49.696;10.808;2023-08-12T09:59:50;98598.88;;;31.03;52.13
64080;BME280;51042;49.696;10.808;2023-08-12T10:02:18;98602.22;;;29.65;56.66
64080;BME280;51042;49.696;10.808;2023-08-12T10:04:45;98591.94;;;30.05;56.88
64080;BME280;51042;49.696;10.808;2023-08-12T10:07:11;98598.38;;;30.59;55.15
64080;BME280;51042;49.696;10.808;2023-08-12T10:09:39;98609.53;;;30.72;55.14
64080;BME280;51042;49.696;10.808;2023-08-12T10:12:05;98607.94;;;31.01;53.51
64080;BME280;51042;49.696;10.808;2023-08-12T10:14:31;98598.94;;;30.12;53.78
64080;BME280;51042;49.696;10.808;2023-08-12T10:16:56;98602.94;;;30.54;59.61
64080;BME280;51042;49.696;10.808;2023-08-12T10:19:25;98601.16;;;30.89;55.51
64080;BME280;51042;49.696;10.808;2023-08-12T10:21:53;98591.59;;;30.54;54.08
64080;BME280;51042;49.696;10.808;2023-08-12T10:24:19;98594.19;;;29.99;57.98
64080;BME280;51042;49.696;10.808;2023-08-12T10:26:45;98597.84;;;29.56;59.25
64080;BME280;51042;49.696;10.808;2023-08-12T10:29:10;98595.94;;;29.51;57.90
64080;BME280;51042;49.696;10.808;2023-08-12T10:31:37;98586.72;;;29.14;61.46
64080;BME280;51042;49.696;10.808;2023-08-12T10:34:02;98594.50;;;29.73;60.14
64080;BME280;51042;49.696;10.808;2023-08-12T10:36:28;98582.66;;;30.88;57.18
64080;BME280;51042;49.696;10.808;2023-08-12T10:38:53;98584.09;;;31.67;54.87
64080;BME280;51042;49.696;10.808;2023-08-12T10:43:58;98583.63;;;31.46;53.57
64080;BME280;51042;49.696;10.808;2023-08-12T10:46:31;98582.84;;;30.98;55.67
64080;BME280;51042;49.696;10.808;2023-08-12T10:48:57;98572.72;;;30.57;57.02
64080;BME280;51042;49.696;10.808;2023-08-12T10:51:38;98583.84;;;30.24;58.97
64080;BME280;51042;49.696;10.808;2023-08-12T10:57:07;98583.97;;;29.88;61.27
64080;BME280;51042;49.696;10.808;2023-08-12T11:04:51;98576.00;;;31.01;58.96
64080;BME280;51042;49.696;10.808;2023-08-12T11:07:28;98572.84;;;30.81;55.56
64080;BME280;51042;49.696;10.808;2023-08-12T11:09:53;98569.94;;;31.12;57.21
64080;BME280;51042;49.696;10.808;2023-08-12T11:12:30;98556.50;;;31.52;57.81
64080;BME280;51042;49.696;10.808;2023-08-12T11:14:57;98545.13;;;31.28;56.48
64080;BME280;51042;49.696;10.808;2023-08-12T11:17:28;98544.50;;;31.37;56.31
64080;BME280;51042;49.696;10.808;2023-08-12T11:19:53;98544.25;;;31.50;56.44
64080;BME280;51042;49.696;10.808;2023-08-12T11:22:20;98543.75;;;31.36;56.21
64080;BME280;51042;49.696;10.808;2023-08-12T11:24:45;98539.31;;;31.83;55.16
64080;BME280;51042;49.696;10.808;2023-08-12T11:27:10;98537.72;;;32.22;55.22
64080;BME280;51042;49.696;10.808;2023-08-12T11:29:36;98535.00;;;32.49;53.22
64080;BME280;51042;49.696;10.808;2023-08-12T11:32:02;98530.34;;;32.78;53.18
64080;BME280;51042;49.696;10.808;2023-08-12T11:34:27;98523.19;;;32.94;51.01
64080;BME280;51042;49.696;10.808;2023-08-12T11:36:52;98517.25;;;32.83;51.71
64080;BME280;51042;49.696;10.808;2023-08-12T11:39:17;98516.38;;;33.07;52.18
64080;BME280;51042;49.696;10.808;2023-08-12T11:41:42;98505.75;;;33.25;50.91
64080;BME280;51042;49.696;10.808;2023-08-12T11:44:11;98509.94;;;33.06;51.86
64080;BME280;51042;49.696;10.808;2023-08-12T11:46:36;98501.28;;;33.14;51.39
64080;BME280;51042;49.696;10.808;2023-08-12T11:49:01;98507.34;;;33.18;51.21
64080;BME280;51042;49.696;10.808;2023-08-12T11:51:27;98494.59;;;32.75;50.36
64080;BME280;51042;49.696;10.808;2023-08-12T11:53:52;98497.72;;;32.27;51.29
64080;BME280;51042;49.696;10.808;2023-08-12T11:56:17;98497.91;;;32.47;51.18
64080;BME280;51042;49.696;10.808;2023-08-12T11:58:48;98488.88;;;32.58;52.22
64080;BME280;51042;49.696;10.808;2023-08-12T12:01:13;98495.56;;;33.04;50.09
64080;BME280;51042;49.696;10.808;2023-08-12T12:03:38;98481.88;;;32.59;50.49
64080;BME280;51042;49.696;10.808;2023-08-12T12:06:03;98482.44;;;32.57;52.39
64080;BME280;51042;49.696;10.808;2023-08-12T12:08:30;98471.47;;;32.54;50.93
64080;BME280;51042;49.696;10.808;2023-08-12T12:10:56;98469.75;;;32.58;51.05
64080;BME280;51042;49.696;10.808;2023-08-12T12:13:21;98477.25;;;32.98;52.34
64080;BME280;51042;49.696;10.808;2023-08-12T12:15:48;98458.34;;;33.37;49.15
64080;BME280;51042;49.696;10.808;2023-08-12T12:18:13;98460.81;;;33.23;50.42
64080;BME280;51042;49.696;10.808;2023-08-12T12:20:42;98446.91;;;33.27;49.88
64080;BME280;51042;49.696;10.808;2023-08-12T12:23:07;98438.72;;;33.14;48.61
64080;BME280;51042;49.696;10.808;2023-08-12T12:25:33;98438.56;;;33.39;49.20
64080;BME280;51042;49.696;10.808;2023-08-12T12:27:59;98426.44;;;33.75;49.59
64080;BME280;51042;49.696;10.808;2023-08-12T12:30:24;98428.94;;;34.07;48.98
64080;BME280;51042;49.696;10.808;2023-08-12T12:32:49;98436.50;;;33.76;49.58
64080;BME280;51042;49.696;10.808;2023-08-12T12:35:16;98435.75;;;33.75;49.30
64080;BME280;51042;49.696;10.808;2023-08-12T12:37:41;98441.03;;;33.88;47.99
64080;BME280;51042;49.696;10.808;2023-08-12T12:40:07;98447.50;;;33.98;46.78
64080;BME280;51042;49.696;10.808;2023-08-12T12:42:33;98454.41;;;34.15;47.53
64080;BME280;51042;49.696;10.808;2023-08-12T12:44:58;98462.31;;;34.91;47.54
64080;BME280;51042;49.696;10.808;2023-08-12T12:47:23;98478.38;;;34.77;49.42
64080;BME280;51042;49.696;10.808;2023-08-12T12:49:48;98489.78;;;34.67;47.85